»·PEaware :: N149CD KWHP-KLGB

N149CD :: KWHP-KLGB

FLIGHT INFORMATION

Flight Status: Arrived
Operator: Privately registered:
United States
More flights under this callsign
Pilot: Nathan E. (30132)
Aircraft: CESSNA 172 SKYHAWK
(C172)
More flights by this aircraft type
Origin: KWHP Whiteman
United States
Destination: KLGB Long Beach
United States
More flights between these airports :: More routes between these airports
Route: V186 ADAMM V394 SLI
File this flight plan on PilotEdge
Remarks: TEC route BURP19
Altitude:
(Current/Filed)
5,000ft
Speed:
(Current/Filed)
110kts
Departed: 13-Nov-20 11:13 AM
Arrived: 13-Nov-20 11:55 AM
Distance/Time
Traveled:
30nm/0:42
Distance/Time
To Go:
Arrived

Flight Plot

Page will automatically refresh every two minutes.


Map Options




Map Legend


Flown Route
Filed Route
Departure Airport
Arrival Airport
Navaid (VOR, NDB)
Fix

Horizontal Profiles

Position Reports

Time Latitude Longitude Heading Altitude Ground
Speed
13-Nov-20 10:56 34.261706 -118.413866 319 1003ft 0kts
13-Nov-20 10:57 34.261706 -118.413866 319 1003ft 0kts
13-Nov-20 10:58 34.261707 -118.413866 319 1004ft 0kts
13-Nov-20 10:59 34.261707 -118.413866 319 1004ft 0kts
13-Nov-20 11:00 34.261707 -118.413866 319 1004ft 0kts
13-Nov-20 11:01 34.261707 -118.413866 319 1004ft 0kts
13-Nov-20 11:02 34.261707 -118.413866 319 1004ft 0kts
13-Nov-20 11:03 34.261707 -118.413866 319 1004ft 0kts
13-Nov-20 11:04 34.261707 -118.413866 319 1004ft 0kts
13-Nov-20 11:05 34.261707 -118.413866 319 1004ft 0kts
13-Nov-20 11:06 34.261707 -118.413866 319 1004ft 0kts
13-Nov-20 11:07 34.261671 -118.414075 239 1003ft 9kts
13-Nov-20 11:08 34.259742 -118.413276 138 993ft 14kts
13-Nov-20 11:09 34.256837 -118.409852 157 976ft 6kts
13-Nov-20 11:10 34.256500 -118.409818 154 974ft 12kts
13-Nov-20 11:11 34.255704 -118.409667 320 971ft 29kts
13-Nov-20 11:12 34.270363 -118.425182 316 1557ft 76kts
13-Nov-20 11:13 34.275582 -118.450014 271 2390ft 79kts
13-Nov-20 11:14 34.277649 -118.476536 271 3242ft 79kts
13-Nov-20 11:15 34.279355 -118.501454 272 4084ft 73kts
13-Nov-20 11:16 34.289532 -118.521461 274 4841ft 73kts
13-Nov-20 11:17 34.267120 -118.524338 161 4978ft 116kts
13-Nov-20 11:18 34.237613 -118.509614 152 4971ft 115kts
13-Nov-20 11:19 34.219429 -118.477843 114 4972ft 119kts
13-Nov-20 11:20 34.207960 -118.440321 114 4972ft 118kts
13-Nov-20 11:21 34.196621 -118.402942 114 4972ft 118kts
13-Nov-20 11:22 34.185357 -118.365834 114 4972ft 117kts
13-Nov-20 11:23 34.174111 -118.328828 114 4971ft 117kts
13-Nov-20 11:24 34.162973 -118.292226 113 4973ft 115kts
13-Nov-20 11:25 34.152015 -118.256326 106 4977ft 113kts
13-Nov-20 11:26 34.141029 -118.220205 106 4980ft 115kts
13-Nov-20 11:27 34.129852 -118.183581 106 4983ft 117kts
13-Nov-20 11:28 34.118494 -118.146425 106 4986ft 118kts
13-Nov-20 11:29 34.106962 -118.108750 107 4988ft 120kts
13-Nov-20 11:30 34.095281 -118.070647 107 4991ft 121kts
13-Nov-20 11:31 34.083544 -118.032431 107 5009ft 121kts
13-Nov-20 11:32 34.071831 -117.994325 107 5009ft 121kts
13-Nov-20 11:33 34.060102 -117.956203 107 5008ft 121kts
13-Nov-20 11:34 34.048347 -117.918047 108 5008ft 121kts
13-Nov-20 11:35 34.036593 -117.879944 108 5007ft 121kts
13-Nov-20 11:36 34.024816 -117.841828 108 5006ft 121kts
13-Nov-20 11:37 33.998787 -117.827256 196 4598ft 121kts
13-Nov-20 11:38 33.967422 -117.840905 203 4104ft 120kts
13-Nov-20 11:39 33.936155 -117.855969 203 4001ft 121kts
13-Nov-20 11:40 33.906694 -117.874310 231 3937ft 120kts
13-Nov-20 11:41 33.885990 -117.904839 232 3435ft 118kts
13-Nov-20 11:42 33.865170 -117.935295 232 3009ft 119kts
13-Nov-20 11:43 33.844055 -117.966114 232 3003ft 118kts
13-Nov-20 11:44 33.823089 -117.996710 232 3005ft 118kts
13-Nov-20 11:45 33.802097 -118.027319 232 3006ft 118kts
13-Nov-20 11:46 33.779887 -118.056559 216 2857ft 118kts
13-Nov-20 11:47 33.751246 -118.074015 168 2353ft 121kts
13-Nov-20 11:48 33.725559 -118.048442 134 1951ft 122kts
13-Nov-20 11:49 33.740535 -118.042639 281 1610ft 112kts
13-Nov-20 11:50 33.740850 -118.078437 308 1614ft 106kts
13-Nov-20 11:51 33.767787 -118.096217 341 1565ft 111kts
13-Nov-20 11:52 33.788718 -118.116018 316 775ft 87kts
13-Nov-20 11:53 33.803889 -118.134507 316 279ft 63kts
13-Nov-20 11:54 33.813972 -118.146761 322 33ft 23kts
13-Nov-20 11:55 33.814926 -118.149027 269 36ft 0kts
13-Nov-20 11:56 33.814368 -118.150996 180 38ft 10kts
13-Nov-20 11:58 33.812617 -118.153391 181 41ft 5kts

Navigation Log

Ident Type
Flight plan parsing failed, navigation log unavailable